< < Back
Terminal Aerodrome Forecast


Current Version              Previous Versions:   1  2  3  4  5  6  7  8  9  

Terminal Aerodrome Forecast

756
FTUS42 KJAX 130855 AAA
TAFGNV
TAF AMD
KGNV 130855Z 1309/1406 26006KT 5SM BR BKN004 OVC009
     FM131200 31007KT P6SM SKC
     FM131500 35011G20KT P6SM SKC
     FM140000 35004KT P6SM SKC=

Latest METAR

414
SAUS70 KWBC 131700 RRL
MTRGNV
METAR KGNV 131653Z 35006KT 10SM CLR 16/M04 A3029 RMK AO2 SLP257
T01561039


USA.gov is the U.S. government's official web portal to all federal, state and local government web resources and services.